• Join FlightAware (Why Join?)
  • Login
  • US Flag 
04:34PM EDT


 

Airport Tracker/Info


-or-


 

Live Flight TrackerFlight Track Log ✈ KAP927 ✈ 20-Jun-2013 ✈ KALB - KOGS

Flight Track Log - Related Links

Times and Time Zones

All times are in EDT time to prevent confusion due to time zone crossing. See the KAP927 flight status page for this flight to view local times or setup timezone preferences in your user account.

Time Position Orientation Groundspeed Altitude Reporting Facility
EDT Latitude Longitude Course Direction KTS MPH feet Rate Location/Type
06:53PM 43.0725 -74.2022 329° Northwest 142 163 7,700  Level Boston Center
06:54PM 43.1033 -74.2258 331° Northwest 137 158 8,200 360 Climbing Boston Center
06:55PM 43.1383 -74.2525 331° Northwest 137 158 8,500 120 Climbing Boston Center
06:56PM 43.1733 -74.2792 331° Northwest 137 158 8,500  Level Boston Center
06:57PM 43.2125 -74.3089 331° Northwest 147 169 8,500  Level Boston Center
06:58PM 43.3286 -74.2874 329° Northwest  Level Estimated
06:58PM 43.2453 -74.3356 329° Northwest 142 163 8,500  Level Boston Center
06:59PM 43.2825 -74.3653 330° Northwest 142 163 8,500  Level Boston Center
07:00PM 43.3194 -74.3922 332° Northwest 142 163 8,500  Level Boston Center
07:01PM 43.3567 -74.4161 335° Northwest 142 163 8,500  Level Boston Center
07:02PM 43.3833 -74.4400 327° Northwest 142 163 8,500  Level Boston Center
07:03PM 43.4244 -74.4728 330° Northwest 142 163 8,600  Climbing Boston Center
07:04PM 43.4594 -74.4994 331° Northwest 142 163 8,600  Level Boston Center
07:05PM 43.4964 -74.5294 330° Northwest 142 163 8,600  Level Boston Center
07:06PM 43.5394 -74.5625 331° Northwest 142 163 8,600  Level Boston Center
07:07PM 43.5764 -74.5894 332° Northwest 142 163 8,600  Level Boston Center
07:08PM 43.6133 -74.6167 332° Northwest 142 163 8,600  Level Boston Center
07:10PM 43.6483 -74.6439 331° Northwest 142 163 8,600  Level Boston Center
07:11PM 43.6936 -74.6800 330° Northwest 142 163 8,600  Level Boston Center
07:12PM 43.7306 -74.7100 330° Northwest 142 163 8,600  Level Boston Center
07:13PM 43.7675 -74.7372 332° Northwest 142 163 8,600  Level Boston Center
07:14PM 43.8044 -74.7644 332° Northwest 142 163 8,600  Level Boston Center
07:15PM 43.8392 -74.7947 328° Northwest 142 163 8,600  Level Boston Center
07:16PM 43.8742 -74.8219 331° Northwest 142 163 8,600  Level Boston Center
07:17PM 43.9131 -74.8494 333° Northwest 142 163 8,600  Level Boston Center
07:18PM 43.9519 -74.8800 331° Northwest 142 163 8,600  Level Boston Center
07:19PM 43.9889 -74.9103 329° Northwest 142 163 8,600  Level Boston Center
07:20PM 44.0278 -74.9408 331° Northwest 142 163 8,600 -60 Level Boston Center
07:21PM 44.0647 -74.9683 332° Northwest 142 163 8,500 -300 Descending Boston Center
07:22PM 44.1058 -74.9989 332° Northwest 147 169 8,100 -480 Descending Boston Center
07:23PM 44.1467 -75.0267 334° Northwest 158 182 7,600 -480 Descending Boston Center
07:24PM 44.1836 -75.0572 329° Northwest 163 188 7,200 -600 Descending Boston Center
07:25PM 44.2392 -75.0831 342° North 174 200 6,500 -600 Descending Boston Center
07:26PM 44.2844 -75.1169 332° Northwest 179 206 6,000 -540 Descending Boston Center
07:27PM 44.3317 -75.1481 335° Northwest 179 206 5,500 -600 Descending Boston Center
07:28PM 44.3789 -75.1792 335° Northwest 179 206 4,900 -600 Descending Boston Center
07:29PM 44.4261 -75.2075 337° Northwest 179 206 4,300 -600 Descending Boston Center
07:30PM 44.4733 -75.2331 339° North 184 212 3,700 -600 Descending Boston Center
07:31PM 44.5206 -75.2672 333° Northwest 184 212 3,200 -540 Descending Boston Center
07:32PM 44.5553 -75.2953 330° Northwest 184 212 2,700 -540 Descending Boston Center